createdAt,value
2018-02-08T00:01:36.851Z,-1.40
2018-02-08T00:04:04.446Z,-1.40
2018-02-08T00:06:32.035Z,-1.40
2018-02-08T00:08:59.592Z,-1.40
2018-02-08T00:11:27.201Z,-1.30
2018-02-08T00:13:54.766Z,-1.30
2018-02-08T00:16:22.713Z,-1.30
2018-02-08T00:18:50.275Z,-1.30
2018-02-08T00:21:17.831Z,-1.30
2018-02-08T00:23:45.627Z,-1.30
2018-02-08T00:26:13.184Z,-1.30
2018-02-08T00:28:40.776Z,-1.40
2018-02-08T00:31:08.323Z,-1.50
2018-02-08T00:33:36.847Z,-1.50
2018-02-08T00:36:04.407Z,-1.50
2018-02-08T00:38:32.315Z,-1.50
2018-02-08T00:40:59.915Z,-1.60
2018-02-08T00:43:27.472Z,-1.60
2018-02-08T00:45:55.309Z,-1.60
2018-02-08T00:48:22.992Z,-1.60
2018-02-08T00:50:51.365Z,-1.60
2018-02-08T00:53:18.930Z,-1.50
2018-02-08T00:55:47.560Z,-1.50
2018-02-08T00:58:15.111Z,-1.50
2018-02-08T01:00:42.672Z,-1.50
2018-02-08T01:03:10.270Z,-1.40
2018-02-08T01:05:37.827Z,-1.40
2018-02-08T01:08:05.656Z,-1.30
2018-02-08T01:10:33.215Z,-1.30
2018-02-08T01:13:00.780Z,-1.20
2018-02-08T01:15:28.389Z,-1.20
2018-02-08T01:17:55.966Z,-1.10
2018-02-08T01:20:24.154Z,-1.10
2018-02-08T01:22:51.733Z,-1.10
2018-02-08T01:25:19.281Z,-1.10
2018-02-08T01:27:46.875Z,-1.00
2018-02-08T01:30:14.468Z,-1.00
2018-02-08T01:32:43.319Z,-1.00
2018-02-08T01:35:11.021Z,-1.00
2018-02-08T01:37:39.357Z,-1.00
2018-02-08T01:40:06.929Z,-1.00
2018-02-08T01:42:34.472Z,-1.00
2018-02-08T01:45:02.066Z,-1.10
2018-02-08T01:47:30.377Z,-1.10
2018-02-08T01:49:57.960Z,-1.20
2018-02-08T01:52:25.505Z,-1.20
2018-02-08T01:54:53.490Z,-1.20
2018-02-08T01:57:21.034Z,-1.20
2018-02-08T01:59:48.582Z,-1.20
2018-02-08T02:02:16.153Z,-1.20
2018-02-08T02:04:43.769Z,-1.20
2018-02-08T02:07:12.107Z,-1.20
2018-02-08T02:09:39.643Z,-1.20
2018-02-08T02:12:07.745Z,-1.20
2018-02-08T02:14:35.383Z,-1.20
2018-02-08T02:17:02.933Z,-1.30
2018-02-08T02:19:30.505Z,-1.30
2018-02-08T02:21:58.076Z,-1.30
2018-02-08T02:24:26.045Z,-1.30
2018-02-08T02:26:53.590Z,-1.30
2018-02-08T02:29:21.142Z,-1.30
2018-02-08T02:31:48.726Z,-1.30
2018-02-08T02:34:16.274Z,-1.20
2018-02-08T02:36:43.853Z,-1.20
2018-02-08T02:39:11.406Z,-1.10
2018-02-08T02:41:39.020Z,-1.10
2018-02-08T02:44:06.698Z,-1.00
2018-02-08T02:46:34.580Z,-1.00
2018-02-08T02:49:02.144Z,-0.90
2018-02-08T02:51:29.700Z,-0.90
2018-02-08T02:53:57.277Z,-0.80
2018-02-08T02:56:24.840Z,-0.70
2018-02-08T02:58:52.422Z,-0.70
2018-02-08T03:01:19.986Z,-0.60
2018-02-08T03:03:48.332Z,-0.60
2018-02-08T03:06:15.910Z,-0.60
2018-02-08T03:08:43.954Z,-0.50
2018-02-08T03:11:11.500Z,-0.50
2018-02-08T03:13:39.076Z,-0.50
2018-02-08T03:16:06.629Z,-0.50
2018-02-08T03:18:34.208Z,-0.40
2018-02-08T03:21:01.795Z,-0.50
2018-02-08T03:23:29.342Z,-0.40
2018-02-08T03:25:57.266Z,-0.40
2018-02-08T03:28:24.824Z,-0.40
2018-02-08T03:30:56.124Z,-0.40
2018-02-08T03:33:23.714Z,-0.40
2018-02-08T03:35:51.252Z,-0.40
2018-02-08T03:38:18.840Z,-0.40
2018-02-08T03:40:46.381Z,-0.40
2018-02-08T03:43:14.284Z,-0.40
2018-02-08T03:45:41.831Z,-0.40
2018-02-08T03:48:09.364Z,-0.50
2018-02-08T03:50:36.942Z,-0.40
2018-02-08T03:53:04.941Z,-0.40
2018-02-08T03:55:32.572Z,-0.40
2018-02-08T03:58:00.115Z,-0.40
2018-02-08T04:00:27.745Z,-0.40
2018-02-08T04:02:55.290Z,-0.30
2018-02-08T04:05:23.141Z,-0.30
2018-02-08T04:07:50.679Z,-0.40
2018-02-08T04:10:18.215Z,-0.40
2018-02-08T04:12:46.568Z,-0.30
2018-02-08T04:15:14.097Z,-0.40
2018-02-08T04:17:41.956Z,-0.40
2018-02-08T04:20:09.497Z,-0.40
2018-02-08T04:22:37.262Z,-0.30
2018-02-08T04:25:04.841Z,-0.30
2018-02-08T04:27:32.378Z,-0.30
2018-02-08T04:30:00.223Z,-0.30
2018-02-08T04:32:27.761Z,-0.30
2018-02-08T04:34:55.300Z,-0.40
2018-02-08T04:37:22.881Z,-0.30
2018-02-08T04:40:02.313Z,-0.30
2018-02-08T04:42:41.680Z,-0.30
2018-02-08T04:45:21.097Z,-0.30
2018-02-08T04:48:06.947Z,-0.40
2018-02-08T04:50:34.493Z,-0.40
2018-02-08T04:53:02.087Z,-0.40
2018-02-08T04:55:29.634Z,-0.40
2018-02-08T04:57:59.056Z,-0.30
2018-02-08T05:00:27.375Z,-0.30
2018-02-08T05:02:58.508Z,-0.30
2018-02-08T05:05:26.062Z,-0.30
2018-02-08T05:07:53.649Z,-0.30
2018-02-08T05:10:21.220Z,-0.20
2018-02-08T05:12:48.758Z,-0.20
2018-02-08T05:15:16.721Z,-0.20
2018-02-08T05:17:44.280Z,-0.20
2018-02-08T05:20:12.009Z,-0.20
2018-02-08T05:22:39.779Z,-0.20
2018-02-08T05:25:08.200Z,-0.20
2018-02-08T05:27:35.818Z,-0.20
2018-02-08T05:30:04.540Z,-0.20
2018-02-08T05:32:32.438Z,-0.20
2018-02-08T05:34:59.976Z,-0.30
2018-02-08T05:37:27.517Z,-0.30
2018-02-08T05:39:55.119Z,-0.30
2018-02-08T05:42:22.655Z,-0.30
2018-02-08T05:44:50.231Z,-0.30
2018-02-08T05:47:17.908Z,-0.30
2018-02-08T05:49:45.497Z,-0.30
2018-02-08T05:52:13.822Z,-0.20
2018-02-08T05:54:41.792Z,-0.20
2018-02-08T05:57:10.113Z,-0.20
2018-02-08T05:59:38.423Z,-0.20
2018-02-08T06:02:06.045Z,-0.20
2018-02-08T06:04:33.557Z,-0.20
2018-02-08T06:07:01.136Z,-0.20
2018-02-08T06:09:28.676Z,-0.20
2018-02-08T06:11:56.913Z,-0.20
2018-02-08T06:14:25.268Z,-0.20
2018-02-08T06:16:52.808Z,-0.20
2018-02-08T06:19:20.397Z,-0.10
2018-02-08T06:21:47.958Z,-0.10
2018-02-08T06:24:16.345Z,-0.10
2018-02-08T06:26:43.896Z,-0.20
2018-02-08T06:29:12.249Z,-0.20
2018-02-08T06:31:39.807Z,-0.20
2018-02-08T06:34:08.476Z,-0.30
2018-02-08T06:36:36.014Z,-0.30
2018-02-08T06:39:03.556Z,-0.30
2018-02-08T06:41:31.252Z,-0.30
2018-02-08T06:43:58.791Z,-0.30
2018-02-08T06:46:26.363Z,-0.20
2018-02-08T06:48:53.913Z,-0.30
2018-02-08T06:51:21.903Z,-0.20
2018-02-08T06:53:49.462Z,-0.20
2018-02-08T06:56:17.003Z,-0.20
2018-02-08T06:58:44.739Z,-0.20
2018-02-08T07:01:12.285Z,-0.20
2018-02-08T07:03:40.596Z,-0.10
2018-02-08T07:06:08.155Z,-0.20
2018-02-08T07:08:35.696Z,-0.20
2018-02-08T07:11:03.305Z,-0.20
2018-02-08T07:13:30.845Z,-0.20
2018-02-08T07:15:58.442Z,-0.20
2018-02-08T07:18:25.990Z,-0.20
2018-02-08T07:20:53.848Z,-0.20
2018-02-08T07:23:21.418Z,-0.20
2018-02-08T07:25:48.972Z,-0.20
2018-02-08T07:28:16.580Z,-0.20
2018-02-08T07:30:44.136Z,-0.10
2018-02-08T07:33:12.478Z,-0.10
2018-02-08T07:35:40.199Z,-0.10
2018-02-08T07:38:08.270Z,-0.10
2018-02-08T07:40:36.408Z,-0.10
2018-02-08T07:43:04.728Z,0.00
2018-02-08T07:45:32.473Z,0.00
2018-02-08T07:48:00.028Z,0.00
2018-02-08T07:50:27.607Z,0.00
2018-02-08T07:52:55.325Z,0.00
2018-02-08T07:55:24.156Z,0.10
2018-02-08T07:57:51.705Z,0.10
2018-02-08T08:00:19.274Z,0.10
2018-02-08T08:02:46.869Z,0.10
2018-02-08T08:05:14.461Z,0.10
2018-02-08T08:07:42.944Z,0.20
2018-02-08T08:10:11.256Z,0.30
2018-02-08T08:12:39.037Z,0.20
2018-02-08T08:15:06.568Z,0.30
2018-02-08T08:17:34.412Z,0.30
2018-02-08T08:20:02.719Z,0.40
2018-02-08T08:22:30.252Z,0.40
2018-02-08T08:24:58.073Z,0.40
2018-02-08T08:27:25.618Z,0.40
2018-02-08T08:29:53.379Z,0.50
2018-02-08T08:32:20.924Z,0.50
2018-02-08T08:34:48.503Z,0.60
2018-02-08T08:37:16.039Z,0.60
2018-02-08T08:39:43.936Z,0.60
2018-02-08T08:42:11.479Z,0.70
2018-02-08T08:44:39.024Z,0.70
2018-02-08T08:47:06.620Z,0.70
2018-02-08T08:49:34.158Z,0.80
2018-02-08T08:52:01.748Z,0.80
2018-02-08T08:54:29.293Z,0.80
2018-02-08T08:56:57.161Z,0.80
2018-02-08T08:59:24.704Z,0.80
2018-02-08T09:01:52.310Z,0.90
2018-02-08T09:04:19.921Z,0.90
2018-02-08T09:06:47.468Z,0.90
2018-02-08T09:09:15.052Z,0.90
2018-02-08T09:11:42.598Z,1.00
2018-02-08T09:14:10.556Z,1.00
2018-02-08T09:16:38.096Z,1.00
2018-02-08T09:19:06.717Z,1.10
2018-02-08T09:21:34.268Z,1.00
2018-02-08T09:24:01.821Z,1.10
2018-02-08T09:26:29.407Z,1.10
2018-02-08T09:28:56.973Z,1.20
2018-02-08T09:31:24.722Z,1.20
2018-02-08T09:33:52.269Z,1.30
2018-02-08T09:36:20.361Z,1.30
2018-02-08T09:38:47.897Z,1.30
2018-02-08T09:41:15.447Z,1.40
2018-02-08T09:43:43.011Z,1.40
2018-02-08T09:46:10.601Z,1.40
2018-02-08T09:48:38.946Z,1.40
2018-02-08T09:51:06.490Z,1.40
2018-02-08T09:53:34.380Z,1.50
2018-02-08T09:56:01.913Z,1.50
2018-02-08T09:58:29.452Z,1.50
2018-02-08T10:00:57.070Z,1.50
2018-02-08T10:03:24.679Z,1.60
2018-02-08T10:05:53.120Z,1.60
2018-02-08T10:08:20.752Z,1.60
2018-02-08T10:10:48.348Z,1.70
2018-02-08T10:13:15.913Z,1.70
2018-02-08T10:15:44.580Z,1.70
2018-02-08T10:18:12.148Z,1.60
2018-02-08T10:20:39.694Z,1.70
2018-02-08T10:23:07.269Z,1.70
2018-02-08T10:25:34.810Z,1.70
2018-02-08T10:28:02.372Z,1.80
2018-02-08T10:30:29.920Z,1.80
2018-02-08T10:32:57.506Z,1.80
2018-02-08T10:35:25.048Z,1.80
2018-02-08T10:37:52.636Z,1.80
2018-02-08T10:40:21.689Z,1.80
2018-02-08T10:42:49.672Z,1.80
2018-02-08T10:45:17.233Z,1.90
2018-02-08T10:47:44.780Z,1.90
2018-02-08T10:50:12.374Z,1.90
2018-02-08T10:52:40.096Z,2.00
2018-02-08T10:55:07.684Z,2.00
2018-02-08T10:57:35.227Z,2.00
2018-02-08T11:00:02.776Z,2.10
2018-02-08T11:02:30.369Z,2.10
2018-02-08T11:04:57.967Z,2.20
2018-02-08T11:07:25.626Z,2.20
2018-02-08T11:09:53.184Z,2.20
2018-02-08T11:12:21.816Z,2.30
2018-02-08T11:14:50.320Z,2.20
2018-02-08T11:17:17.849Z,2.30
2018-02-08T11:19:45.429Z,2.30
2018-02-08T11:22:12.998Z,2.40
2018-02-08T11:24:40.585Z,2.40
2018-02-08T11:27:08.896Z,2.40
2018-02-08T11:29:36.482Z,2.40
2018-02-08T11:32:04.144Z,2.40
2018-02-08T11:34:32.028Z,2.50
2018-02-08T11:36:59.628Z,2.50
2018-02-08T11:39:27.182Z,2.50
2018-02-08T11:41:55.590Z,2.50
2018-02-08T11:44:23.128Z,2.50
2018-02-08T11:46:51.146Z,2.50
2018-02-08T11:49:18.688Z,2.50
2018-02-08T11:51:46.241Z,2.50
2018-02-08T11:54:13.841Z,2.50
2018-02-08T11:56:41.553Z,2.50
2018-02-08T11:59:09.145Z,2.40
2018-02-08T12:01:36.690Z,2.50
2018-02-08T12:04:04.254Z,2.50
2018-02-08T12:06:31.798Z,2.50
2018-02-08T12:08:59.684Z,2.50
2018-02-08T12:11:27.273Z,2.50
2018-02-08T12:13:54.819Z,2.50
2018-02-08T12:16:23.152Z,2.50
2018-02-08T12:18:50.688Z,2.50
2018-02-08T12:21:18.349Z,2.50
2018-02-08T12:23:45.841Z,2.50
2018-02-08T12:26:13.514Z,2.50
2018-02-08T12:28:41.052Z,2.60
2018-02-08T12:31:09.085Z,2.50
2018-02-08T12:33:36.620Z,2.60
2018-02-08T12:36:04.156Z,2.60
2018-02-08T12:38:31.734Z,2.60
2018-02-08T12:40:59.274Z,2.70
2018-02-08T12:43:27.021Z,2.70
2018-02-08T12:45:54.851Z,2.70
2018-02-08T12:48:23.553Z,2.80
2018-02-08T12:50:51.182Z,2.80
2018-02-08T12:53:18.778Z,2.80
2018-02-08T12:55:47.021Z,2.80
2018-02-08T12:58:16.073Z,2.80
2018-02-08T13:00:43.709Z,2.90
2018-02-08T13:03:12.013Z,2.90
2018-02-08T13:05:39.683Z,2.80
2018-02-08T13:08:07.221Z,2.90
2018-02-08T13:10:35.134Z,2.90
2018-02-08T13:13:03.450Z,2.90
2018-02-08T13:15:31.758Z,3.00
2018-02-08T13:17:59.336Z,2.90
2018-02-08T13:20:26.879Z,3.00
2018-02-08T13:22:54.463Z,3.00
2018-02-08T13:25:22.008Z,2.90
2018-02-08T13:27:49.585Z,3.00
2018-02-08T13:30:17.895Z,3.00
2018-02-08T13:32:46.576Z,3.00
2018-02-08T13:35:14.882Z,3.00
2018-02-08T13:37:42.433Z,3.00
2018-02-08T13:40:11.789Z,3.00
2018-02-08T13:42:39.476Z,3.00
2018-02-08T13:45:07.825Z,2.90
2018-02-08T13:47:55.204Z,2.90
2018-02-08T13:50:29.011Z,2.90
2018-02-08T13:52:57.468Z,2.90
2018-02-08T13:55:25.637Z,2.90
2018-02-08T13:57:54.820Z,2.90
2018-02-08T14:00:28.276Z,2.80
2018-02-08T14:02:55.928Z,2.80
2018-02-08T14:05:23.496Z,2.80
2018-02-08T14:07:51.077Z,2.70
2018-02-08T14:10:18.628Z,2.80
2018-02-08T14:12:46.226Z,2.70
2018-02-08T14:15:13.795Z,2.70
2018-02-08T14:17:41.722Z,2.70
2018-02-08T14:20:09.334Z,2.70
2018-02-08T14:22:36.875Z,2.70
2018-02-08T14:25:05.246Z,2.60
2018-02-08T14:27:32.801Z,2.60
2018-02-08T14:30:00.393Z,2.60
2018-02-08T14:32:27.935Z,2.60
2018-02-08T14:34:56.585Z,2.50
2018-02-08T14:37:24.138Z,2.50
2018-02-08T14:39:51.737Z,2.40
2018-02-08T14:42:20.108Z,2.40
2018-02-08T14:44:47.679Z,2.50
2018-02-08T14:47:16.046Z,2.40
2018-02-08T14:49:43.594Z,2.40
2018-02-08T14:52:11.593Z,2.40
2018-02-08T14:54:41.286Z,2.40
2018-02-08T14:57:08.836Z,2.40
2018-02-08T14:59:36.408Z,2.40
2018-02-08T15:02:03.956Z,2.30
2018-02-08T15:04:31.626Z,2.30
2018-02-08T15:06:59.940Z,2.30
2018-02-08T15:09:27.522Z,2.30
2018-02-08T15:11:55.057Z,2.30
2018-02-08T15:14:22.923Z,2.30
2018-02-08T15:16:50.469Z,2.30
2018-02-08T15:19:18.206Z,2.20
2018-02-08T15:21:46.550Z,2.20
2018-02-08T15:24:14.090Z,2.20
2018-02-08T15:26:41.978Z,2.20
2018-02-08T15:29:09.515Z,2.20
2018-02-08T15:31:37.063Z,2.20
2018-02-08T15:34:04.663Z,2.10
2018-02-08T15:36:32.204Z,2.10
2018-02-08T15:38:59.844Z,2.10
2018-02-08T15:41:27.409Z,2.10
2018-02-08T15:43:54.992Z,2.10
2018-02-08T15:46:22.539Z,2.00
2018-02-08T15:48:50.389Z,2.00
2018-02-08T15:51:17.954Z,1.90
2018-02-08T15:53:45.497Z,1.90
2018-02-08T15:56:13.222Z,1.90
2018-02-08T15:58:40.785Z,2.00
2018-02-08T16:01:08.343Z,1.90
2018-02-08T16:03:36.056Z,1.90
2018-02-08T16:06:03.632Z,1.90
2018-02-08T16:08:31.177Z,1.80
2018-02-08T16:10:59.260Z,1.80
2018-02-08T16:13:26.794Z,1.70
2018-02-08T16:15:54.329Z,1.70
2018-02-08T16:18:21.904Z,1.70
2018-02-08T16:20:50.234Z,1.60
2018-02-08T16:23:18.209Z,1.60
2018-02-08T16:25:45.758Z,1.70
2018-02-08T16:28:13.294Z,1.70
2018-02-08T16:30:40.869Z,1.70
2018-02-08T16:33:08.413Z,1.70
2018-02-08T16:35:36.070Z,1.70
2018-02-08T16:38:03.624Z,1.70
2018-02-08T16:40:31.393Z,1.70
2018-02-08T16:42:59.266Z,1.70
2018-02-08T16:45:27.147Z,1.70
2018-02-08T16:47:54.722Z,1.80
2018-02-08T16:50:23.820Z,1.70
2018-02-08T16:52:51.424Z,1.70
2018-02-08T16:55:18.964Z,1.70
2018-02-08T16:57:46.681Z,1.70
2018-02-08T17:00:14.238Z,1.80
2018-02-08T17:02:41.859Z,1.80
2018-02-08T17:05:10.169Z,1.80
2018-02-08T17:07:38.145Z,1.80
2018-02-08T17:10:06.584Z,1.80
2018-02-08T17:12:34.115Z,1.80
2018-02-08T17:15:01.758Z,1.80
2018-02-08T17:17:29.318Z,1.70
2018-02-08T17:19:57.076Z,1.70
2018-02-08T17:22:24.627Z,1.70
2018-02-08T17:24:52.593Z,1.70
2018-02-08T17:27:20.126Z,1.70
2018-02-08T17:29:47.652Z,1.60
2018-02-08T17:32:15.409Z,1.70
2018-02-08T17:34:42.953Z,1.70
2018-02-08T17:37:10.549Z,1.70
2018-02-08T17:39:38.861Z,1.70
2018-02-08T17:42:06.470Z,1.70
2018-02-08T17:44:34.003Z,1.70
2018-02-08T17:47:01.558Z,1.60
2018-02-08T17:49:29.212Z,1.60
2018-02-08T17:51:56.744Z,1.60
2018-02-08T17:54:24.316Z,1.60
2018-02-08T17:56:51.844Z,1.50
2018-02-08T17:59:21.733Z,1.50
2018-02-08T18:01:49.325Z,1.50
2018-02-08T18:04:17.692Z,1.50
2018-02-08T18:06:45.333Z,1.40
2018-02-08T18:09:12.860Z,1.50
2018-02-08T18:11:40.412Z,1.50
2018-02-08T18:14:07.955Z,1.50
2018-02-08T18:16:35.896Z,1.60
2018-02-08T18:19:04.205Z,1.70
2018-02-08T18:21:31.757Z,1.60
2018-02-08T18:23:59.450Z,1.70
2018-02-08T18:26:27.065Z,1.70
2018-02-08T18:28:55.445Z,1.70
2018-02-08T18:31:22.990Z,1.70
2018-02-08T18:33:51.016Z,1.70
2018-02-08T18:36:18.553Z,1.80
2018-02-08T18:38:46.107Z,1.80
2018-02-08T18:41:13.788Z,1.80
2018-02-08T18:43:41.348Z,1.80
2018-02-08T18:46:08.935Z,1.80
2018-02-08T18:48:36.587Z,1.80
2018-02-08T18:51:04.173Z,1.70
2018-02-08T18:53:31.746Z,1.80
2018-02-08T18:56:00.397Z,1.80
2018-02-08T18:58:27.944Z,1.80
2018-02-08T19:00:55.500Z,1.80
2018-02-08T19:03:23.077Z,1.80
2018-02-08T19:05:50.611Z,1.70
2018-02-08T19:08:18.198Z,1.70
2018-02-08T19:10:45.760Z,1.70
2018-02-08T19:13:13.630Z,1.60
2018-02-08T19:15:41.949Z,1.50
2018-02-08T19:18:09.503Z,1.50
2018-02-08T19:20:37.093Z,1.50
2018-02-08T19:23:04.932Z,1.50
2018-02-08T19:25:33.277Z,1.50
2018-02-08T19:28:00.821Z,1.50
2018-02-08T19:30:28.889Z,1.50
2018-02-08T19:32:56.430Z,1.50
2018-02-08T19:35:23.990Z,1.40
2018-02-08T19:37:51.585Z,1.40
2018-02-08T19:40:19.143Z,1.40
2018-02-08T19:42:46.756Z,1.40
2018-02-08T19:45:14.288Z,1.40
2018-02-08T19:47:42.738Z,1.40
2018-02-08T19:50:10.294Z,1.40
2018-02-08T19:52:38.143Z,1.30
2018-02-08T19:55:05.685Z,1.30
2018-02-08T19:57:33.229Z,1.30
2018-02-08T20:00:00.847Z,1.20
2018-02-08T20:02:28.393Z,1.20
2018-02-08T20:04:55.968Z,1.20
2018-02-08T20:07:23.516Z,1.20
2018-02-08T20:09:51.860Z,1.20
2018-02-08T20:12:19.520Z,1.10
2018-02-08T20:14:49.597Z,1.10
2018-02-08T20:17:17.189Z,1.20
2018-02-08T20:19:44.736Z,1.20
2018-02-08T20:22:12.643Z,1.20
2018-02-08T20:24:40.360Z,1.20
2018-02-08T20:27:08.684Z,1.20
2018-02-08T20:29:36.278Z,1.20
2018-02-08T20:32:04.597Z,1.20
2018-02-08T20:34:32.772Z,1.20
2018-02-08T20:37:01.106Z,1.20
2018-02-08T20:39:29.474Z,1.20
2018-02-08T20:41:57.033Z,1.20
2018-02-08T20:44:24.580Z,1.10
2018-02-08T20:46:52.172Z,1.20
2018-02-08T20:49:20.478Z,1.20
2018-02-08T20:51:48.065Z,1.20
2018-02-08T20:54:15.606Z,1.20
2018-02-08T20:56:43.188Z,1.20
2018-02-08T20:59:10.735Z,1.20
2018-02-08T21:01:38.571Z,1.20
2018-02-08T21:04:06.113Z,1.20
2018-02-08T21:06:33.673Z,1.20
2018-02-08T21:09:02.085Z,1.20
2018-02-08T21:11:29.647Z,1.20
2018-02-08T21:13:57.316Z,1.20
2018-02-08T21:16:24.878Z,1.10
2018-02-08T21:18:52.529Z,1.00
2018-02-08T21:21:20.093Z,1.00
2018-02-08T21:23:48.079Z,0.90
2018-02-08T21:26:15.676Z,0.80
2018-02-08T21:28:43.218Z,0.80
2018-02-08T21:31:10.819Z,0.70
2018-02-08T21:33:38.368Z,0.60
2018-02-08T21:36:06.878Z,0.60
2018-02-08T21:38:34.417Z,0.60
2018-02-08T21:41:02.317Z,0.50
2018-02-08T21:43:29.860Z,0.40
2018-02-08T21:45:57.407Z,0.30
2018-02-08T21:48:24.998Z,0.30
2018-02-08T21:50:52.557Z,0.30
2018-02-08T21:53:20.148Z,0.20
2018-02-08T21:55:47.729Z,0.20
2018-02-08T21:58:16.468Z,0.10
2018-02-08T22:00:44.081Z,0.10
2018-02-08T22:03:12.489Z,0.00
2018-02-08T22:05:40.217Z,0.00
2018-02-08T22:08:08.536Z,-0.10
2018-02-08T22:10:36.175Z,-0.10
2018-02-08T22:13:03.750Z,-0.10
2018-02-08T22:15:31.655Z,-0.10
2018-02-08T22:18:00.095Z,-0.20
2018-02-08T22:20:27.776Z,-0.20
2018-02-08T22:22:55.518Z,-0.20
2018-02-08T22:25:23.064Z,-0.30
2018-02-08T22:27:50.657Z,-0.20
2018-02-08T22:30:18.210Z,-0.30
2018-02-08T22:32:46.332Z,-0.20
2018-02-08T22:35:14.657Z,-0.20
2018-02-08T22:37:42.245Z,-0.20
2018-02-08T22:40:10.613Z,-0.20
2018-02-08T22:42:38.238Z,-0.20
2018-02-08T22:45:05.824Z,-0.30
2018-02-08T22:47:33.372Z,-0.30
2018-02-08T22:50:00.988Z,-0.40
2018-02-08T22:52:28.548Z,-0.40
2018-02-08T22:54:56.517Z,-0.40
2018-02-08T22:57:24.848Z,-0.50
2018-02-08T22:59:52.600Z,-0.50
2018-02-08T23:02:20.182Z,-0.60
2018-02-08T23:04:47.997Z,-0.60
2018-02-08T23:07:16.339Z,-0.70
2018-02-08T23:09:43.897Z,-0.70
2018-02-08T23:12:11.480Z,-0.70
2018-02-08T23:14:39.263Z,-0.70
2018-02-08T23:17:07.892Z,-0.80
2018-02-08T23:19:35.426Z,-0.80
2018-02-08T23:22:02.990Z,-0.80
2018-02-08T23:24:30.581Z,-0.70
2018-02-08T23:26:58.141Z,-0.70
2018-02-08T23:29:25.724Z,-0.80
2018-02-08T23:31:53.284Z,-0.70
2018-02-08T23:34:22.136Z,-0.70
2018-02-08T23:36:49.677Z,-0.70
2018-02-08T23:39:17.232Z,-0.60
2018-02-08T23:41:44.838Z,-0.60
2018-02-08T23:44:12.392Z,-0.50
2018-02-08T23:46:39.997Z,-0.40
2018-02-08T23:49:07.537Z,-0.40
2018-02-08T23:51:35.907Z,-0.30
2018-02-08T23:54:03.460Z,-0.30
2018-02-08T23:56:31.500Z,-0.10
2018-02-08T23:58:59.096Z,-0.10
